• Join FlightAware (Why Join?)
  • Login
  • US Flag 
06:32AM EST


 

Airport Tracker/Info


-or-


 

Live Flight TrackerFlight Track Log ✈ TCF5993 ✈ 21-Apr-2013 ✈ KLGA - KMKE

Flight Track Log - Related Links

Times and Time Zones

All times are in EDT time to prevent confusion due to time zone crossing. See the TCF5993 flight status page for this flight to view local times or setup timezone preferences in your user account.

Time Position Orientation Groundspeed Altitude Reporting Facility
EDT Latitude Longitude Course Direction KTS MPH feet Rate Location/Type
03:19PM 40.7500 -73.8333 304° West 152 175 1,600  Level New York TRACON
03:20PM 40.7500 -73.8000 90° East 216 249 3,500 2,160 Climbing New York TRACON
03:21PM 40.8167 -73.7500 30° Northeast 239 275 6,000 2,640 Climbing New York TRACON
03:22PM 40.9710 -74.3087 304° West  Level FlightAware Approximate
03:22PM 40.8667 -73.7833 333° Northwest 266 306 8,800  Level New York TRACON
03:23PM 41.0227 -74.4275 299° West  Level FlightAware Approximate
03:23PM 40.9167 -73.8667 308° West 291 335 11,000  Level New York TRACON
03:24PM 41.0735 -74.5471 304° West  Level FlightAware Approximate
03:24PM 40.9667 -73.9500 308° West 318 366 13,400  Level New York TRACON
03:25PM 41.0333 -74.0500 311° West 324 373 15,800 1,200 Climbing New York TRACON
03:26PM 41.0833 -74.1500 304° West 328 377 16,000 60 Climbing New York TRACON
03:28PM 41.1031 -74.3533 277° West 347 399 16,000  Level New York Center
03:29PM 41.1144 -74.4586 278° West 329 379 16,000  Level New York Center
03:30PM 41.1269 -74.5861 277° West 329 379 16,000  Level New York Center
03:31PM 41.1381 -74.6914 278° West 329 379 16,000 540 Level New York Center
03:32PM 41.1842 -74.8069 298° West 318 366 17,100 1,440 Climbing New York Center
03:33PM 41.2267 -74.9033 300° West 333 383 19,000 2,100 Climbing New York Center
03:34PM 41.2731 -75.0111 300° West 341 392 21,300 2,100 Climbing New York Center
03:35PM 41.3208 -75.1247 299° West 341 392 23,300 1,800 Climbing New York Center
03:36PM 41.3708 -75.2383 300° West 346 398 25,000 1,680 Climbing New York Center
03:37PM 41.4222 -75.3608 299° West 358 412 26,700 1,560 Climbing New York Center
03:38PM 41.4739 -75.4806 300° West 371 427 28,100 1,320 Climbing New York Center
03:39PM 41.5125 -75.6108 292° West 376 433 29,400 1,200 Climbing New York Center
03:40PM 41.5508 -75.7411 292° West 381 438 30,600 1,380 Climbing New York Center
03:41PM 41.5889 -75.8742 291° West 381 438 32,200 1,320 Climbing New York Center
03:42PM 41.6231 -75.9989 290° West 376 433 33,300 1,020 Climbing New York Center
03:43PM 41.6608 -76.1297 291° West 376 433 34,300 1,020 Climbing New York Center
03:44PM 41.6986 -76.2606 291° West 376 433 35,300 840 Climbing New York Center
03:45PM 41.7303 -76.3853 289° West 371 427 36,000 240 Climbing New York Center
03:47PM 41.8028 -76.6467 290° West 384 442 36,000  Level Cleveland Center
03:48PM 41.8408 -76.7839 290° West 394 453 36,000  Level Cleveland Center
03:49PM 41.8808 -76.9211 291° West 394 453 36,000  Level Cleveland Center
03:50PM 41.9164 -77.0614 289° West 399 459 36,000  Level Cleveland Center
03:51PM 41.9561 -77.1989 291° West 399 459 36,000  Level Cleveland Center
03:52PM 41.9911 -77.3339 289° West 399 459 36,000  Level Cleveland Center
03:53PM 42.0306 -77.4744 291° West 399 459 36,000  Level Cleveland Center
03:54PM 42.0656 -77.6128 289° West 399 459 36,000  Level Cleveland Center
03:56PM 42.1389 -77.8892 290° West 399 459 36,000  Level Cleveland Center
03:57PM 42.1756 -78.0278 290° West 399 459 36,000  Level Cleveland Center
03:58PM 42.2119 -78.1667 290° West 399 459 36,000  Level Cleveland Center
03:59PM 42.2481 -78.3111 289° West 399 459 36,000  Level Cleveland Center
04:00PM 42.2864 -78.4586 289° West 404 465 36,000  Level Cleveland Center
04:01PM 42.3222 -78.6033 289° West 404 465 36,000  Level Cleveland Center
04:02PM 42.3600 -78.7428 290° West 404 465 36,000  Level Cleveland Center
04:03PM 42.3956 -78.8878 288° West 404 465 36,000  Level Cleveland Center
04:04PM 42.4267 -79.0164 288° West 404 465 36,000  Level Cleveland Center
04:05PM 42.4703 -79.1758 290° West 404 465 36,000  Level Cleveland Center
04:06PM 42.4972 -79.3244 284° West 404 465 36,000  Level Cleveland Center
04:07PM 42.5028 -79.4764 273° West 404 465 36,000  Level Cleveland Center
04:08PM 42.5083 -79.6283 273° West 404 465 36,000  Level Cleveland Center
04:09PM 42.5200 -79.7775 276° West 404 465 36,000  Level Cleveland Center
04:10PM 42.5250 -79.9297 273° West 404 465 36,000  Level Cleveland Center
04:11PM 42.5278 -80.0817 271° West 404 465 36,000  Level Cleveland Center
04:12PM 42.5325 -80.2169 273° West 404 465 36,000  Level Cleveland Center
04:13PM 42.5392 -80.3692 273° West 404 465 36,000  Level Cleveland Center
04:14PM 42.5456 -80.5183 273° West 399 459 36,000  Level Cleveland Center
04:15PM 42.5539 -80.6706 274° West 405 466 36,000  Level Cleveland Center
04:16PM 42.5581 -80.8144 272° West 395 455 36,000  Level Cleveland Center
04:17PM 42.5639 -80.9694 273° West 400 460 36,000  Level Cleveland Center
04:18PM 42.5672 -81.1189 272° West 400 460 36,000  Level Cleveland Center
04:19PM 42.5728 -81.2711 273° West 405 466 36,000  Level Cleveland Center
04:20PM 42.5800 -81.4403 273° West 405 466 36,000  Level Cleveland Center
04:21PM 42.6058 -81.5903 283° West 405 466 36,000  Level Cleveland Center
04:22PM 42.6336 -81.7403 284° West 412 474 36,000  Level Cleveland Center
04:23PM 42.6572 -81.8733 284° West 412 474 36,000  Level Cleveland Center
04:24PM 42.6844 -82.0264 284° West 412 474 36,000  Level Cleveland Center
04:25PM 42.7097 -82.1825 282° West 412 474 36,000  Level Cleveland Center
04:26PM 42.7344 -82.3358 282° West 412 474 36,000  Level Cleveland Center
04:27PM 42.7592 -82.4892 282° West 412 474 36,000  Level Cleveland Center
04:28PM 42.7858 -82.6400 284° West 412 474 36,000  Level Cleveland Center
04:29PM 42.8122 -82.7881 284° West 412 474 36,000  Level Cleveland Center
04:30PM 42.8361 -82.9417 282° West 412 474 36,000  Level Cleveland Center
04:31PM 42.8600 -83.0928 282° West 417 480 36,000  Level Cleveland Center
04:32PM 42.8839 -83.2439 282° West 411 473 36,000  Level Cleveland Center
04:33PM 42.9094 -83.3981 283° West 416 479 36,000  Level Cleveland Center
04:34PM 42.9347 -83.5525 283° West 416 479 36,000  Level Cleveland Center
04:35PM 42.9597 -83.7039 283° West 416 479 36,000  Level Cleveland Center
04:36PM 42.9764 -83.8608 278° West 416 479 36,000  Level Cleveland Center
04:37PM 42.9906 -84.0178 277° West 416 479 36,000  Level Cleveland Center
04:38PM 43.0047 -84.1692 277° West 411 473 36,000  Level Cleveland Center
04:39PM 43.0206 -84.3233 278° West 411 473 36,000  Level Cleveland Center
04:39PM 43.0300 -84.4183 278° West 415 478 36,000  Level Chicago Center
04:40PM 43.0447 -84.5747 277° West 416 479 36,000  Level Chicago Center
04:41PM 43.0619 -84.7603 277° West 412 474 36,000  Level Chicago Center
04:43PM 43.0758 -84.9161 277° West 414 476 36,000  Level Chicago Center
04:44PM 43.0894 -85.0672 277° West 403 464 36,000 -420 Level Chicago Center
04:45PM 43.1011 -85.2192 276° West 403 464 35,200 -960 Descending Chicago Center
04:46PM 43.1136 -85.3669 277° West 393 452 34,100 -1,260 Descending Chicago Center
04:47PM 43.1264 -85.5167 277° West 398 458 32,600 -1,620 Descending Chicago Center
04:48PM 43.1419 -85.6969 277° West 400 460 30,800 -1,680 Descending Chicago Center
04:49PM 43.1539 -85.8428 276° West 395 455 29,200 -1,680 Descending Chicago Center
04:50PM 43.1661 -85.9836 277° West 386 444 27,400 -1,800 Descending Chicago Center
04:51PM 43.1700 -86.1225 272° West 379 436 25,600 -1,920 Descending Chicago Center
04:52PM 43.1656 -86.2842 268° West 363 418 23,500 -1,860 Descending Chicago Center
04:53PM 43.1639 -86.4169 269° West 355 409 21,800 -1,680 Descending Chicago Center
04:54PM 43.1619 -86.5497 269° West 351 404 20,100 -1,620 Descending Chicago Center
04:55PM 43.1600 -86.6781 269° West 341 392 18,500 -1,680 Descending Chicago Center
04:57PM 43.1539 -86.9544 268° West 329 379 15,000 -1,620 Descending Chicago Center
04:58PM 43.1514 -87.0761 268° West 322 371 13,600 -1,320 Descending Chicago Center
04:59PM 43.1478 -87.1864 267° West 293 337 12,300 -1,260 Descending Chicago Center
05:00PM 43.1464 -87.2878 269° West 272 313 11,000 -1,380 Descending Chicago Center
05:01PM 43.1428 -87.3914 267° West 257 296 9,500 -1,500 Descending Chicago Center
05:02PM 43.1397 -87.4856 267° West 250 288 8,000 -1,380 Descending Chicago Center
05:03PM 43.1383 -87.5797 269° West 247 284 6,700 -1,500 Descending Chicago Center
05:04PM 43.1378 -87.6817 270° West 232 267 4,900 -1,500 Descending Chicago Center
05:05PM 43.1403 -87.7697 272° West 231 266 3,700 -1,020 Descending Chicago Center
05:06PM 43.1253 -87.8403 254° West 208 239 2,800 -480 Descending Chicago Center
05:07PM 43.0781 -87.8736 207° Southwest 197 227 2,800  Level Chicago Center